sensor_id;sensor_type;location;lat;lon;timestamp;temperature;humidity
24448;DHT22;13348;50.984;5.822;2023-04-29T00:01:27;10.90;99.90
24448;DHT22;13348;50.984;5.822;2023-04-29T00:03:55;10.90;99.90
24448;DHT22;13348;50.984;5.822;2023-04-29T00:06:21;10.90;99.90
24448;DHT22;13348;50.984;5.822;2023-04-29T00:08:48;10.80;99.90
24448;DHT22;13348;50.984;5.822;2023-04-29T00:11:16;10.80;99.90
24448;DHT22;13348;50.984;5.822;2023-04-29T00:13:43;10.80;99.90
24448;DHT22;13348;50.984;5.822;2023-04-29T00:16:10;10.80;99.90
24448;DHT22;13348;50.984;5.822;2023-04-29T00:18:39;10.80;99.90
24448;DHT22;13348;50.984;5.822;2023-04-29T00:21:06;10.80;99.90
24448;DHT22;13348;50.984;5.822;2023-04-29T00:23:33;10.70;99.90
24448;DHT22;13348;50.984;5.822;2023-04-29T00:26:00;10.80;99.90
24448;DHT22;13348;50.984;5.822;2023-04-29T00:28:26;10.80;99.90
24448;DHT22;13348;50.984;5.822;2023-04-29T00:30:53;10.70;99.90
24448;DHT22;13348;50.984;5.822;2023-04-29T00:33:21;10.70;99.90
24448;DHT22;13348;50.984;5.822;2023-04-29T00:35:49;10.70;99.90
24448;DHT22;13348;50.984;5.822;2023-04-29T00:38:16;10.60;99.90
24448;DHT22;13348;50.984;5.822;2023-04-29T00:40:43;10.60;99.90
24448;DHT22;13348;50.984;5.822;2023-04-29T00:43:10;10.60;99.90
24448;DHT22;13348;50.984;5.822;2023-04-29T00:45:37;10.60;99.90
24448;DHT22;13348;50.984;5.822;2023-04-29T00:48:04;10.60;99.90
24448;DHT22;13348;50.984;5.822;2023-04-29T00:50:32;10.60;99.90
24448;DHT22;13348;50.984;5.822;2023-04-29T00:53:00;10.60;99.90
24448;DHT22;13348;50.984;5.822;2023-04-29T00:55:27;10.50;99.90
24448;DHT22;13348;50.984;5.822;2023-04-29T00:57:54;10.60;99.90
24448;DHT22;13348;50.984;5.822;2023-04-29T01:00:21;10.60;99.90
24448;DHT22;13348;50.984;5.822;2023-04-29T01:02:49;10.50;99.90
24448;DHT22;13348;50.984;5.822;2023-04-29T01:05:16;10.50;99.90
24448;DHT22;13348;50.984;5.822;2023-04-29T01:07:44;10.50;99.90
24448;DHT22;13348;50.984;5.822;2023-04-29T01:10:19;10.40;99.90
24448;DHT22;13348;50.984;5.822;2023-04-29T01:12:49;10.40;99.90
24448;DHT22;13348;50.984;5.822;2023-04-29T01:15:20;10.50;99.90
24448;DHT22;13348;50.984;5.822;2023-04-29T01:17:49;10.50;99.90
24448;DHT22;13348;50.984;5.822;2023-04-29T01:20:17;10.40;99.90
24448;DHT22;13348;50.984;5.822;2023-04-29T01:22:45;10.40;99.90
24448;DHT22;13348;50.984;5.822;2023-04-29T01:25:13;10.40;99.90
24448;DHT22;13348;50.984;5.822;2023-04-29T01:27:41;10.40;99.90
24448;DHT22;13348;50.984;5.822;2023-04-29T01:30:16;10.40;99.90
24448;DHT22;13348;50.984;5.822;2023-04-29T01:32:49;10.30;99.90
24448;DHT22;13348;50.984;5.822;2023-04-29T01:35:21;10.30;99.90
24448;DHT22;13348;50.984;5.822;2023-04-29T01:37:51;10.30;99.90
24448;DHT22;13348;50.984;5.822;2023-04-29T01:40:24;10.20;99.90
24448;DHT22;13348;50.984;5.822;2023-04-29T01:42:54;10.30;99.90
24448;DHT22;13348;50.984;5.822;2023-04-29T01:45:21;10.30;99.90
24448;DHT22;13348;50.984;5.822;2023-04-29T01:47:48;10.30;99.90
24448;DHT22;13348;50.984;5.822;2023-04-29T01:50:20;10.20;99.90
24448;DHT22;13348;50.984;5.822;2023-04-29T01:52:47;10.10;99.90
24448;DHT22;13348;50.984;5.822;2023-04-29T01:55:14;10.10;99.90
24448;DHT22;13348;50.984;5.822;2023-04-29T01:57:42;10.10;99.90
24448;DHT22;13348;50.984;5.822;2023-04-29T02:00:09;10.10;99.90
24448;DHT22;13348;50.984;5.822;2023-04-29T02:02:37;10.10;99.90
24448;DHT22;13348;50.984;5.822;2023-04-29T02:05:04;10.00;99.90
24448;DHT22;13348;50.984;5.822;2023-04-29T02:07:31;10.00;99.90
24448;DHT22;13348;50.984;5.822;2023-04-29T02:09:57;10.00;99.90
24448;DHT22;13348;50.984;5.822;2023-04-29T02:12:25;10.00;99.90
24448;DHT22;13348;50.984;5.822;2023-04-29T02:14:53;9.90;99.90
24448;DHT22;13348;50.984;5.822;2023-04-29T02:17:20;9.90;99.90
24448;DHT22;13348;50.984;5.822;2023-04-29T02:19:47;10.00;99.90
24448;DHT22;13348;50.984;5.822;2023-04-29T02:22:13;9.90;99.90
24448;DHT22;13348;50.984;5.822;2023-04-29T02:24:40;9.90;99.90
24448;DHT22;13348;50.984;5.822;2023-04-29T02:27:07;9.90;99.90
24448;DHT22;13348;50.984;5.822;2023-04-29T02:29:34;9.90;99.90
24448;DHT22;13348;50.984;5.822;2023-04-29T02:32:02;9.80;99.90
24448;DHT22;13348;50.984;5.822;2023-04-29T02:34:30;9.80;99.90
24448;DHT22;13348;50.984;5.822;2023-04-29T02:36:57;9.80;99.90
24448;DHT22;13348;50.984;5.822;2023-04-29T02:39:24;9.80;99.90
24448;DHT22;13348;50.984;5.822;2023-04-29T02:41:53;9.70;99.90
24448;DHT22;13348;50.984;5.822;2023-04-29T02:44:19;9.70;99.90
24448;DHT22;13348;50.984;5.822;2023-04-29T02:46:46;9.70;99.90
24448;DHT22;13348;50.984;5.822;2023-04-29T02:49:14;9.70;99.90
24448;DHT22;13348;50.984;5.822;2023-04-29T02:51:41;9.70;99.90
24448;DHT22;13348;50.984;5.822;2023-04-29T02:54:08;9.70;99.90
24448;DHT22;13348;50.984;5.822;2023-04-29T02:56:35;9.60;99.90
24448;DHT22;13348;50.984;5.822;2023-04-29T02:59:02;9.60;99.90
24448;DHT22;13348;50.984;5.822;2023-04-29T03:01:29;9.60;99.90
24448;DHT22;13348;50.984;5.822;2023-04-29T03:03:56;9.60;99.90
24448;DHT22;13348;50.984;5.822;2023-04-29T03:06:25;9.60;99.90
24448;DHT22;13348;50.984;5.822;2023-04-29T03:08:52;9.50;99.90
24448;DHT22;13348;50.984;5.822;2023-04-29T03:11:19;9.40;99.90
24448;DHT22;13348;50.984;5.822;2023-04-29T03:13:47;9.50;99.90
24448;DHT22;13348;50.984;5.822;2023-04-29T03:16:14;9.40;99.90
24448;DHT22;13348;50.984;5.822;2023-04-29T03:18:41;9.40;99.90
24448;DHT22;13348;50.984;5.822;2023-04-29T03:21:08;9.30;99.90
24448;DHT22;13348;50.984;5.822;2023-04-29T03:23:36;9.30;99.90
24448;DHT22;13348;50.984;5.822;2023-04-29T03:26:05;9.30;99.90
24448;DHT22;13348;50.984;5.822;2023-04-29T03:28:32;9.30;99.90
24448;DHT22;13348;50.984;5.822;2023-04-29T03:30:59;9.20;99.90
24448;DHT22;13348;50.984;5.822;2023-04-29T03:33:26;9.20;99.90
24448;DHT22;13348;50.984;5.822;2023-04-29T03:35:53;9.20;99.90
24448;DHT22;13348;50.984;5.822;2023-04-29T03:38:20;9.20;99.90
24448;DHT22;13348;50.984;5.822;2023-04-29T03:40:48;9.10;99.90
24448;DHT22;13348;50.984;5.822;2023-04-29T03:43:15;9.10;99.90
24448;DHT22;13348;50.984;5.822;2023-04-29T03:45:42;9.00;99.90
24448;DHT22;13348;50.984;5.822;2023-04-29T03:48:09;9.00;99.90
24448;DHT22;13348;50.984;5.822;2023-04-29T03:50:37;9.00;99.90
24448;DHT22;13348;50.984;5.822;2023-04-29T03:53:04;9.00;99.90
24448;DHT22;13348;50.984;5.822;2023-04-29T03:55:31;9.00;99.90
24448;DHT22;13348;50.984;5.822;2023-04-29T03:57:59;9.00;99.90
24448;DHT22;13348;50.984;5.822;2023-04-29T04:00:26;9.00;99.90
24448;DHT22;13348;50.984;5.822;2023-04-29T04:02:55;9.00;99.90
24448;DHT22;13348;50.984;5.822;2023-04-29T04:05:22;9.00;99.90
24448;DHT22;13348;50.984;5.822;2023-04-29T04:07:49;9.00;99.90
24448;DHT22;13348;50.984;5.822;2023-04-29T04:10:16;9.00;99.90
24448;DHT22;13348;50.984;5.822;2023-04-29T04:12:43;9.00;99.90
24448;DHT22;13348;50.984;5.822;2023-04-29T04:15:11;9.00;99.90
24448;DHT22;13348;50.984;5.822;2023-04-29T04:17:38;9.00;99.90
24448;DHT22;13348;50.984;5.822;2023-04-29T04:20:06;9.00;99.90
24448;DHT22;13348;50.984;5.822;2023-04-29T04:22:33;9.00;99.90
24448;DHT22;13348;50.984;5.822;2023-04-29T04:25:00;8.90;99.90
24448;DHT22;13348;50.984;5.822;2023-04-29T04:27:26;8.90;99.90
24448;DHT22;13348;50.984;5.822;2023-04-29T04:29:53;8.90;99.90
24448;DHT22;13348;50.984;5.822;2023-04-29T04:32:22;8.90;99.90
24448;DHT22;13348;50.984;5.822;2023-04-29T04:34:49;8.90;99.90
24448;DHT22;13348;50.984;5.822;2023-04-29T04:37:16;8.90;99.90
24448;DHT22;13348;50.984;5.822;2023-04-29T04:39:43;8.90;99.90
24448;DHT22;13348;50.984;5.822;2023-04-29T04:42:09;8.90;99.90
24448;DHT22;13348;50.984;5.822;2023-04-29T04:44:36;8.90;99.90
24448;DHT22;13348;50.984;5.822;2023-04-29T04:47:03;8.90;99.90
24448;DHT22;13348;50.984;5.822;2023-04-29T04:49:32;8.90;99.90
24448;DHT22;13348;50.984;5.822;2023-04-29T04:51:59;8.90;99.90
24448;DHT22;13348;50.984;5.822;2023-04-29T04:54:26;8.90;99.90
24448;DHT22;13348;50.984;5.822;2023-04-29T04:56:53;8.80;99.90
24448;DHT22;13348;50.984;5.822;2023-04-29T04:59:20;8.90;99.90
24448;DHT22;13348;50.984;5.822;2023-04-29T05:01:46;8.90;99.90
24448;DHT22;13348;50.984;5.822;2023-04-29T05:04:13;8.80;99.90
24448;DHT22;13348;50.984;5.822;2023-04-29T05:06:42;8.90;99.90
24448;DHT22;13348;50.984;5.822;2023-04-29T05:09:09;8.90;99.90
24448;DHT22;13348;50.984;5.822;2023-04-29T05:11:36;8.90;99.90
24448;DHT22;13348;50.984;5.822;2023-04-29T05:14:03;8.90;99.90
24448;DHT22;13348;50.984;5.822;2023-04-29T05:16:29;8.90;99.90
24448;DHT22;13348;50.984;5.822;2023-04-29T05:18:56;9.00;99.90
24448;DHT22;13348;50.984;5.822;2023-04-29T05:21:23;9.00;99.90
24448;DHT22;13348;50.984;5.822;2023-04-29T05:23:51;9.00;99.90
24448;DHT22;13348;50.984;5.822;2023-04-29T05:26:18;9.00;99.90
24448;DHT22;13348;50.984;5.822;2023-04-29T05:28:45;9.00;99.90
24448;DHT22;13348;50.984;5.822;2023-04-29T05:31:12;9.00;99.90
24448;DHT22;13348;50.984;5.822;2023-04-29T05:33:39;8.90;99.90
24448;DHT22;13348;50.984;5.822;2023-04-29T05:36:06;9.00;99.90
24448;DHT22;13348;50.984;5.822;2023-04-29T05:38:33;8.90;99.90
24448;DHT22;13348;50.984;5.822;2023-04-29T05:41:01;8.90;99.90
24448;DHT22;13348;50.984;5.822;2023-04-29T05:43:28;8.90;99.90
24448;DHT22;13348;50.984;5.822;2023-04-29T05:45:55;8.80;99.90
24448;DHT22;13348;50.984;5.822;2023-04-29T05:48:22;8.90;99.90
24448;DHT22;13348;50.984;5.822;2023-04-29T05:50:49;8.90;99.90
24448;DHT22;13348;50.984;5.822;2023-04-29T05:53:16;8.90;99.90
24448;DHT22;13348;50.984;5.822;2023-04-29T05:55:43;8.90;99.90
24448;DHT22;13348;50.984;5.822;2023-04-29T05:58:12;8.90;99.90
24448;DHT22;13348;50.984;5.822;2023-04-29T06:00:39;8.90;99.90
24448;DHT22;13348;50.984;5.822;2023-04-29T06:03:08;8.90;99.90
24448;DHT22;13348;50.984;5.822;2023-04-29T06:05:35;8.90;99.90
24448;DHT22;13348;50.984;5.822;2023-04-29T06:08:02;8.90;99.90
24448;DHT22;13348;50.984;5.822;2023-04-29T06:10:30;8.90;99.90
24448;DHT22;13348;50.984;5.822;2023-04-29T06:12:57;8.90;99.90
24448;DHT22;13348;50.984;5.822;2023-04-29T06:15:25;9.00;99.90
24448;DHT22;13348;50.984;5.822;2023-04-29T06:17:52;9.00;99.90
24448;DHT22;13348;50.984;5.822;2023-04-29T06:20:20;9.00;99.90
24448;DHT22;13348;50.984;5.822;2023-04-29T06:22:46;9.00;99.90
24448;DHT22;13348;50.984;5.822;2023-04-29T06:25:13;9.00;99.90
24448;DHT22;13348;50.984;5.822;2023-04-29T06:27:40;9.10;99.90
24448;DHT22;13348;50.984;5.822;2023-04-29T06:30:07;9.00;99.90
24448;DHT22;13348;50.984;5.822;2023-04-29T06:32:36;9.00;99.90
24448;DHT22;13348;50.984;5.822;2023-04-29T06:35:03;9.00;99.90
24448;DHT22;13348;50.984;5.822;2023-04-29T06:37:30;9.00;99.90
24448;DHT22;13348;50.984;5.822;2023-04-29T06:39:57;9.10;99.90
24448;DHT22;13348;50.984;5.822;2023-04-29T06:42:23;9.10;99.90
24448;DHT22;13348;50.984;5.822;2023-04-29T06:44:50;9.10;99.90
24448;DHT22;13348;50.984;5.822;2023-04-29T06:47:17;9.10;99.90
24448;DHT22;13348;50.984;5.822;2023-04-29T06:49:46;9.10;99.90
24448;DHT22;13348;50.984;5.822;2023-04-29T06:52:12;9.10;99.90
24448;DHT22;13348;50.984;5.822;2023-04-29T06:54:40;9.20;99.90
24448;DHT22;13348;50.984;5.822;2023-04-29T06:57:08;9.20;99.90
24448;DHT22;13348;50.984;5.822;2023-04-29T06:59:35;9.30;99.90
24448;DHT22;13348;50.984;5.822;2023-04-29T07:02:02;9.40;99.90
24448;DHT22;13348;50.984;5.822;2023-04-29T07:04:29;9.40;99.90
24448;DHT22;13348;50.984;5.822;2023-04-29T07:06:57;9.40;99.90
24448;DHT22;13348;50.984;5.822;2023-04-29T07:09:24;9.30;99.90
24448;DHT22;13348;50.984;5.822;2023-04-29T07:11:52;9.20;99.90
24448;DHT22;13348;50.984;5.822;2023-04-29T07:14:19;9.30;99.90
24448;DHT22;13348;50.984;5.822;2023-04-29T07:16:47;9.20;99.90
24448;DHT22;13348;50.984;5.822;2023-04-29T07:19:18;9.20;99.90
24448;DHT22;13348;50.984;5.822;2023-04-29T07:21:45;9.30;99.90
24448;DHT22;13348;50.984;5.822;2023-04-29T07:24:13;9.30;99.90
24448;DHT22;13348;50.984;5.822;2023-04-29T07:26:41;9.30;99.90
24448;DHT22;13348;50.984;5.822;2023-04-29T07:29:08;9.30;99.90
24448;DHT22;13348;50.984;5.822;2023-04-29T07:31:35;9.20;99.90
24448;DHT22;13348;50.984;5.822;2023-04-29T07:34:02;9.30;99.90
24448;DHT22;13348;50.984;5.822;2023-04-29T07:36:30;9.30;99.90
24448;DHT22;13348;50.984;5.822;2023-04-29T07:38:57;9.30;99.90
24448;DHT22;13348;50.984;5.822;2023-04-29T07:41:25;9.40;99.90
24448;DHT22;13348;50.984;5.822;2023-04-29T07:43:52;9.40;99.90
24448;DHT22;13348;50.984;5.822;2023-04-29T07:46:19;9.40;99.90
24448;DHT22;13348;50.984;5.822;2023-04-29T07:48:47;9.40;99.90
24448;DHT22;13348;50.984;5.822;2023-04-29T07:51:14;9.40;99.90
24448;DHT22;13348;50.984;5.822;2023-04-29T07:53:41;9.40;99.90
24448;DHT22;13348;50.984;5.822;2023-04-29T07:56:08;9.40;99.90
24448;DHT22;13348;50.984;5.822;2023-04-29T07:58:36;9.40;99.90
24448;DHT22;13348;50.984;5.822;2023-04-29T08:01:06;9.50;99.90
24448;DHT22;13348;50.984;5.822;2023-04-29T08:03:33;9.70;99.90
24448;DHT22;13348;50.984;5.822;2023-04-29T08:06:00;9.70;99.90
24448;DHT22;13348;50.984;5.822;2023-04-29T08:08:28;9.70;99.90
24448;DHT22;13348;50.984;5.822;2023-04-29T08:10:54;9.70;99.90
24448;DHT22;13348;50.984;5.822;2023-04-29T08:13:21;9.70;99.90
24448;DHT22;13348;50.984;5.822;2023-04-29T08:15:50;9.70;99.90
24448;DHT22;13348;50.984;5.822;2023-04-29T08:18:18;9.70;99.90
24448;DHT22;13348;50.984;5.822;2023-04-29T08:20:46;9.90;99.90
24448;DHT22;13348;50.984;5.822;2023-04-29T08:23:13;9.70;99.90
24448;DHT22;13348;50.984;5.822;2023-04-29T08:25:40;9.80;99.90
24448;DHT22;13348;50.984;5.822;2023-04-29T08:28:08;9.80;99.90
24448;DHT22;13348;50.984;5.822;2023-04-29T08:30:36;9.90;99.90
24448;DHT22;13348;50.984;5.822;2023-04-29T08:33:04;9.80;99.90
24448;DHT22;13348;50.984;5.822;2023-04-29T08:35:31;9.70;99.90
24448;DHT22;13348;50.984;5.822;2023-04-29T08:37:58;9.80;99.90
24448;DHT22;13348;50.984;5.822;2023-04-29T08:40:25;9.80;99.90
24448;DHT22;13348;50.984;5.822;2023-04-29T08:42:52;9.70;99.90
24448;DHT22;13348;50.984;5.822;2023-04-29T08:45:20;9.70;99.90
24448;DHT22;13348;50.984;5.822;2023-04-29T08:47:48;9.70;99.90
24448;DHT22;13348;50.984;5.822;2023-04-29T08:50:18;9.70;99.90
24448;DHT22;13348;50.984;5.822;2023-04-29T08:52:45;9.60;99.90
24448;DHT22;13348;50.984;5.822;2023-04-29T08:55:12;9.70;99.90
24448;DHT22;13348;50.984;5.822;2023-04-29T08:57:38;9.70;99.90
24448;DHT22;13348;50.984;5.822;2023-04-29T09:00:07;9.80;99.90
24448;DHT22;13348;50.984;5.822;2023-04-29T09:02:37;9.70;99.90
24448;DHT22;13348;50.984;5.822;2023-04-29T09:05:05;9.80;99.90
24448;DHT22;13348;50.984;5.822;2023-04-29T09:07:36;9.80;99.90
24448;DHT22;13348;50.984;5.822;2023-04-29T09:10:04;9.80;99.90
24448;DHT22;13348;50.984;5.822;2023-04-29T09:12:31;9.80;99.90
24448;DHT22;13348;50.984;5.822;2023-04-29T09:14:58;10.10;99.90
24448;DHT22;13348;50.984;5.822;2023-04-29T09:17:37;10.40;99.90
24448;DHT22;13348;50.984;5.822;2023-04-29T09:20:05;10.80;99.90
24448;DHT22;13348;50.984;5.822;2023-04-29T09:22:52;11.20;99.90
24448;DHT22;13348;50.984;5.822;2023-04-29T09:25:20;11.50;99.90
24448;DHT22;13348;50.984;5.822;2023-04-29T09:27:46;11.60;99.90
24448;DHT22;13348;50.984;5.822;2023-04-29T09:30:13;11.50;99.90
24448;DHT22;13348;50.984;5.822;2023-04-29T09:32:41;11.70;99.90
24448;DHT22;13348;50.984;5.822;2023-04-29T09:35:20;11.80;99.90
24448;DHT22;13348;50.984;5.822;2023-04-29T09:37:47;12.10;99.90
24448;DHT22;13348;50.984;5.822;2023-04-29T09:42:57;12.30;99.90
24448;DHT22;13348;50.984;5.822;2023-04-29T09:45:33;12.60;99.90
24448;DHT22;13348;50.984;5.822;2023-04-29T09:48:01;13.20;99.90
24448;DHT22;13348;50.984;5.822;2023-04-29T09:50:29;13.30;99.90
24448;DHT22;13348;50.984;5.822;2023-04-29T09:52:56;13.50;99.90
24448;DHT22;13348;50.984;5.822;2023-04-29T09:55:23;13.80;99.90
24448;DHT22;13348;50.984;5.822;2023-04-29T09:57:51;12.70;99.90
24448;DHT22;13348;50.984;5.822;2023-04-29T10:00:19;12.50;99.90
24448;DHT22;13348;50.984;5.822;2023-04-29T10:02:47;12.50;99.90
24448;DHT22;13348;50.984;5.822;2023-04-29T10:05:14;12.20;99.90
24448;DHT22;13348;50.984;5.822;2023-04-29T10:07:41;12.30;99.90
24448;DHT22;13348;50.984;5.822;2023-04-29T10:10:08;12.10;99.90
24448;DHT22;13348;50.984;5.822;2023-04-29T10:12:38;12.30;99.90
24448;DHT22;13348;50.984;5.822;2023-04-29T10:15:07;12.50;99.90
24448;DHT22;13348;50.984;5.822;2023-04-29T10:17:40;12.30;99.90
24448;DHT22;13348;50.984;5.822;2023-04-29T10:20:09;12.10;99.90
24448;DHT22;13348;50.984;5.822;2023-04-29T10:22:43;12.00;99.90
24448;DHT22;13348;50.984;5.822;2023-04-29T10:25:11;12.30;99.90
24448;DHT22;13348;50.984;5.822;2023-04-29T10:27:39;12.40;99.90
24448;DHT22;13348;50.984;5.822;2023-04-29T10:30:08;12.60;99.90
24448;DHT22;13348;50.984;5.822;2023-04-29T10:32:39;12.90;99.90
24448;DHT22;13348;50.984;5.822;2023-04-29T10:35:07;12.60;99.90
24448;DHT22;13348;50.984;5.822;2023-04-29T10:37:34;12.10;99.90
24448;DHT22;13348;50.984;5.822;2023-04-29T10:40:05;12.50;99.90
24448;DHT22;13348;50.984;5.822;2023-04-29T10:42:35;12.60;99.90
24448;DHT22;13348;50.984;5.822;2023-04-29T10:45:16;12.40;99.90
24448;DHT22;13348;50.984;5.822;2023-04-29T10:47:55;12.40;99.90
24448;DHT22;13348;50.984;5.822;2023-04-29T10:50:34;12.80;99.90
24448;DHT22;13348;50.984;5.822;2023-04-29T10:53:01;13.10;99.90
24448;DHT22;13348;50.984;5.822;2023-04-29T10:55:29;12.80;99.90
24448;DHT22;13348;50.984;5.822;2023-04-29T10:57:56;12.60;99.90
24448;DHT22;13348;50.984;5.822;2023-04-29T11:00:25;12.40;99.90
24448;DHT22;13348;50.984;5.822;2023-04-29T11:02:52;12.50;99.90
24448;DHT22;13348;50.984;5.822;2023-04-29T11:05:28;12.90;99.90
24448;DHT22;13348;50.984;5.822;2023-04-29T11:08:08;12.90;99.90
24448;DHT22;13348;50.984;5.822;2023-04-29T11:10:35;13.50;99.90
24448;DHT22;13348;50.984;5.822;2023-04-29T11:15:48;13.20;99.90
24448;DHT22;13348;50.984;5.822;2023-04-29T11:18:16;12.80;99.90
24448;DHT22;13348;50.984;5.822;2023-04-29T11:23:35;12.70;99.90
24448;DHT22;13348;50.984;5.822;2023-04-29T11:26:03;12.80;99.90
24448;DHT22;13348;50.984;5.822;2023-04-29T11:28:30;12.80;99.90
24448;DHT22;13348;50.984;5.822;2023-04-29T11:30:57;13.00;99.90
24448;DHT22;13348;50.984;5.822;2023-04-29T11:33:25;12.90;99.90
24448;DHT22;13348;50.984;5.822;2023-04-29T11:35:52;12.70;99.90
24448;DHT22;13348;50.984;5.822;2023-04-29T11:38:22;12.60;99.90
24448;DHT22;13348;50.984;5.822;2023-04-29T11:40:51;13.00;99.90
24448;DHT22;13348;50.984;5.822;2023-04-29T11:43:18;13.00;99.90
24448;DHT22;13348;50.984;5.822;2023-04-29T11:45:45;13.40;99.90
24448;DHT22;13348;50.984;5.822;2023-04-29T11:48:16;13.40;99.90
24448;DHT22;13348;50.984;5.822;2023-04-29T11:50:43;13.50;99.90
24448;DHT22;13348;50.984;5.822;2023-04-29T11:53:10;13.50;99.90
24448;DHT22;13348;50.984;5.822;2023-04-29T11:55:38;13.60;99.90
24448;DHT22;13348;50.984;5.822;2023-04-29T11:58:08;13.70;99.90
24448;DHT22;13348;50.984;5.822;2023-04-29T12:00:35;13.50;99.90
24448;DHT22;13348;50.984;5.822;2023-04-29T12:03:06;13.60;99.90
24448;DHT22;13348;50.984;5.822;2023-04-29T12:05:33;13.80;99.90
24448;DHT22;13348;50.984;5.822;2023-04-29T12:08:00;13.80;99.90
24448;DHT22;13348;50.984;5.822;2023-04-29T12:10:27;14.00;99.90
24448;DHT22;13348;50.984;5.822;2023-04-29T12:12:54;14.10;99.90
24448;DHT22;13348;50.984;5.822;2023-04-29T12:15:22;14.00;99.90
24448;DHT22;13348;50.984;5.822;2023-04-29T12:17:49;14.30;99.90
24448;DHT22;13348;50.984;5.822;2023-04-29T12:20:16;14.60;99.90
24448;DHT22;13348;50.984;5.822;2023-04-29T12:22:43;14.30;99.90
24448;DHT22;13348;50.984;5.822;2023-04-29T12:25:10;14.30;99.90
24448;DHT22;13348;50.984;5.822;2023-04-29T12:27:38;14.30;99.90
24448;DHT22;13348;50.984;5.822;2023-04-29T12:30:06;14.20;99.90
24448;DHT22;13348;50.984;5.822;2023-04-29T12:32:35;14.30;99.90
24448;DHT22;13348;50.984;5.822;2023-04-29T12:35:02;14.40;99.90
24448;DHT22;13348;50.984;5.822;2023-04-29T12:37:29;14.50;99.90
24448;DHT22;13348;50.984;5.822;2023-04-29T12:39:56;14.40;99.90
24448;DHT22;13348;50.984;5.822;2023-04-29T12:42:23;14.90;99.90
24448;DHT22;13348;50.984;5.822;2023-04-29T12:44:57;14.80;99.90
24448;DHT22;13348;50.984;5.822;2023-04-29T12:47:24;14.70;99.90
24448;DHT22;13348;50.984;5.822;2023-04-29T12:49:59;14.50;99.90
24448;DHT22;13348;50.984;5.822;2023-04-29T12:52:26;14.60;99.90
24448;DHT22;13348;50.984;5.822;2023-04-29T12:54:53;15.40;99.90
24448;DHT22;13348;50.984;5.822;2023-04-29T12:57:20;15.90;99.90
24448;DHT22;13348;50.984;5.822;2023-04-29T12:59:48;16.00;99.90
24448;DHT22;13348;50.984;5.822;2023-04-29T13:02:15;15.60;99.90
24448;DHT22;13348;50.984;5.822;2023-04-29T13:04:41;15.70;99.90
24448;DHT22;13348;50.984;5.822;2023-04-29T13:07:10;16.20;99.90
24448;DHT22;13348;50.984;5.822;2023-04-29T13:09:37;16.50;99.90
24448;DHT22;13348;50.984;5.822;2023-04-29T13:12:06;16.30;99.90
24448;DHT22;13348;50.984;5.822;2023-04-29T13:14:33;15.90;99.90
24448;DHT22;13348;50.984;5.822;2023-04-29T13:17:00;16.30;99.90
24448;DHT22;13348;50.984;5.822;2023-04-29T13:19:28;16.60;99.90
24448;DHT22;13348;50.984;5.822;2023-04-29T13:21:55;16.10;99.90
24448;DHT22;13348;50.984;5.822;2023-04-29T13:24:23;15.80;99.90
24448;DHT22;13348;50.984;5.822;2023-04-29T13:26:50;15.90;99.90
24448;DHT22;13348;50.984;5.822;2023-04-29T13:29:17;16.20;99.90
24448;DHT22;13348;50.984;5.822;2023-04-29T13:31:44;16.10;99.90
24448;DHT22;13348;50.984;5.822;2023-04-29T13:34:11;15.90;99.90
24448;DHT22;13348;50.984;5.822;2023-04-29T13:36:38;17.00;99.90
24448;DHT22;13348;50.984;5.822;2023-04-29T13:39:04;17.10;99.90
24448;DHT22;13348;50.984;5.822;2023-04-29T13:41:33;16.70;99.90
24448;DHT22;13348;50.984;5.822;2023-04-29T13:44:00;17.50;99.90
24448;DHT22;13348;50.984;5.822;2023-04-29T13:46:26;18.60;99.90
24448;DHT22;13348;50.984;5.822;2023-04-29T13:48:54;19.40;99.90
24448;DHT22;13348;50.984;5.822;2023-04-29T13:51:21;19.50;99.90
24448;DHT22;13348;50.984;5.822;2023-04-29T13:53:48;18.80;99.90
24448;DHT22;13348;50.984;5.822;2023-04-29T13:56:15;18.30;99.90
24448;DHT22;13348;50.984;5.822;2023-04-29T13:58:44;17.70;99.90
24448;DHT22;13348;50.984;5.822;2023-04-29T14:01:11;16.40;99.90
24448;DHT22;13348;50.984;5.822;2023-04-29T14:03:38;15.60;99.90
24448;DHT22;13348;50.984;5.822;2023-04-29T14:06:05;15.00;99.90
24448;DHT22;13348;50.984;5.822;2023-04-29T14:08:32;14.50;99.90
24448;DHT22;13348;50.984;5.822;2023-04-29T14:10:59;14.60;99.90
24448;DHT22;13348;50.984;5.822;2023-04-29T14:13:26;14.30;99.90
24448;DHT22;13348;50.984;5.822;2023-04-29T14:15:55;14.20;99.90
24448;DHT22;13348;50.984;5.822;2023-04-29T14:18:24;14.20;99.90
24448;DHT22;13348;50.984;5.822;2023-04-29T14:20:51;14.10;99.90
24448;DHT22;13348;50.984;5.822;2023-04-29T14:23:19;14.00;99.90
24448;DHT22;13348;50.984;5.822;2023-04-29T14:25:46;13.80;99.90
24448;DHT22;13348;50.984;5.822;2023-04-29T14:28:13;13.80;99.90
24448;DHT22;13348;50.984;5.822;2023-04-29T14:30:40;13.50;99.90
24448;DHT22;13348;50.984;5.822;2023-04-29T14:33:09;13.40;99.90
24448;DHT22;13348;50.984;5.822;2023-04-29T14:35:36;13.40;99.90
24448;DHT22;13348;50.984;5.822;2023-04-29T14:38:03;13.40;99.90
24448;DHT22;13348;50.984;5.822;2023-04-29T14:40:29;13.40;99.90
24448;DHT22;13348;50.984;5.822;2023-04-29T14:42:56;13.40;99.90
24448;DHT22;13348;50.984;5.822;2023-04-29T14:45:23;13.40;99.90
24448;DHT22;13348;50.984;5.822;2023-04-29T14:47:50;13.40;99.90
24448;DHT22;13348;50.984;5.822;2023-04-29T14:50:19;13.30;99.90
24448;DHT22;13348;50.984;5.822;2023-04-29T14:52:47;13.20;99.90
24448;DHT22;13348;50.984;5.822;2023-04-29T14:55:14;13.20;99.90
24448;DHT22;13348;50.984;5.822;2023-04-29T14:57:41;13.30;99.90
24448;DHT22;13348;50.984;5.822;2023-04-29T15:00:08;13.30;99.90
24448;DHT22;13348;50.984;5.822;2023-04-29T15:02:36;13.30;99.90
24448;DHT22;13348;50.984;5.822;2023-04-29T15:05:03;13.30;99.90
24448;DHT22;13348;50.984;5.822;2023-04-29T15:07:32;13.30;99.90
24448;DHT22;13348;50.984;5.822;2023-04-29T15:10:00;13.40;99.90
24448;DHT22;13348;50.984;5.822;2023-04-29T15:12:27;13.40;99.90
24448;DHT22;13348;50.984;5.822;2023-04-29T15:14:54;13.50;99.90
24448;DHT22;13348;50.984;5.822;2023-04-29T15:17:21;13.60;99.90
24448;DHT22;13348;50.984;5.822;2023-04-29T15:19:48;13.70;99.90
24448;DHT22;13348;50.984;5.822;2023-04-29T15:22:14;13.80;99.90
24448;DHT22;13348;50.984;5.822;2023-04-29T15:24:43;13.80;99.90
24448;DHT22;13348;50.984;5.822;2023-04-29T15:27:10;13.90;99.90
24448;DHT22;13348;50.984;5.822;2023-04-29T15:29:37;13.90;99.90
24448;DHT22;13348;50.984;5.822;2023-04-29T15:32:04;14.00;99.90
24448;DHT22;13348;50.984;5.822;2023-04-29T15:34:31;14.10;99.90
24448;DHT22;13348;50.984;5.822;2023-04-29T15:36:58;14.20;99.90
24448;DHT22;13348;50.984;5.822;2023-04-29T15:39:25;14.10;99.90
24448;DHT22;13348;50.984;5.822;2023-04-29T15:41:53;14.20;99.90
24448;DHT22;13348;50.984;5.822;2023-04-29T15:44:21;14.00;99.90
24448;DHT22;13348;50.984;5.822;2023-04-29T15:46:47;14.10;99.90
24448;DHT22;13348;50.984;5.822;2023-04-29T15:49:14;14.20;99.90